Time;durP1;ratioP1;P1;durP2;ratioP2;P2;SDS_P1;SDS_P2;PMS_P1;PMS_P2;Temp;Humidity;BMP_temperature;BMP_pressure;BME280_temperature;BME280_humidity;BME280_pressure;Samples;Min_cycle;Max_cycle;Signal;HPM_P1;HPM_P2
2021/01/20 00:03:07;;;;;;;0.30;0.20;;;11.10;99.90;;;;;;20610421;28;21152;-79
2021/01/20 00:13:11;;;;;;;1.90;0.93;;;11.10;99.90;;;;;;20623252;28;20642;-79
2021/01/20 00:23:14;;;;;;;0.93;0.63;;;11.10;99.90;;;;;;20625349;28;20314;-82
2021/01/20 00:33:18;;;;;;;0.73;0.60;;;11.30;99.90;;;;;;20625783;28;20210;-79
2021/01/20 00:43:23;;;;;;;1.33;0.70;;;11.40;99.90;;;;;;20621789;28;20235;-79
2021/01/20 00:53:27;;;;;;;0.40;0.40;;;11.40;99.90;;;;;;20569772;28;20535;-75
2021/01/20 01:03:30;;;;;;;1.00;0.70;;;11.30;99.90;;;;;;20539437;28;20739;-76
2021/01/20 01:13:33;;;;;;;0.53;0.53;;;11.30;99.90;;;;;;20541393;28;20456;-75
2021/01/20 01:23:36;;;;;;;0.27;0.27;;;11.40;99.90;;;;;;20552583;28;20349;-78
2021/01/20 01:33:40;;;;;;;0.67;0.67;;;11.40;99.90;;;;;;20619845;28;20633;-76
2021/01/20 01:43:42;;;;;;;1.23;1.13;;;11.40;99.90;;;;;;20610229;28;20321;-73
2021/01/20 01:53:46;;;;;;;0.60;0.60;;;11.30;99.90;;;;;;20609272;28;20210;-73
2021/01/20 02:03:50;;;;;;;0.40;0.40;;;11.40;99.90;;;;;;20617253;28;20223;-76
2021/01/20 02:14:02;;;;;;;2.63;1.37;;;11.40;99.90;;;;;;20599383;28;20196;-77
2021/01/20 02:24:09;;;;;;;0.20;0.10;;;11.40;99.90;;;;;;20613952;28;20318;-76
2021/01/20 02:34:17;;;;;;;0.53;0.50;;;11.40;99.90;;;;;;20611573;28;20199;-76
2021/01/20 02:44:20;;;;;;;0.30;0.30;;;11.50;99.90;;;;;;20614092;28;20247;-75
2021/01/20 02:54:24;;;;;;;1.47;1.37;;;11.60;99.90;;;;;;20612127;28;20566;-75
2021/01/20 03:04:28;;;;;;;0.20;0.17;;;11.60;99.90;;;;;;20684272;22;20501;-69
2021/01/20 03:14:33;;;;;;;0.20;0.10;;;11.40;99.90;;;;;;20514097;28;20231;-69
2021/01/20 03:24:35;;;;;;;0.30;0.30;;;11.40;99.90;;;;;;20514268;28;20668;-69
2021/01/20 03:34:40;;;;;;;0.40;0.40;;;11.40;99.90;;;;;;20530617;28;20208;-70
2021/01/20 03:44:43;;;;;;;0.50;0.50;;;11.40;99.90;;;;;;20540979;28;20980;-70
2021/01/20 03:54:47;;;;;;;0.20;0.20;;;11.40;99.90;;;;;;20545256;28;20593;-70
2021/01/20 04:04:50;;;;;;;0.30;0.17;;;11.20;99.90;;;;;;20548388;28;20248;-70
2021/01/20 04:14:53;;;;;;;1.20;0.77;;;11.30;99.90;;;;;;20545210;28;20621;-70
2021/01/20 04:24:56;;;;;;;3.23;0.63;;;11.40;99.90;;;;;;20544503;28;20228;-70
2021/01/20 04:34:59;;;;;;;3.00;0.60;;;11.30;99.90;;;;;;20469685;28;20284;-70
2021/01/20 04:45:02;;;;;;;0.20;0.20;;;11.40;99.90;;;;;;20447582;28;20590;-69
2021/01/20 04:55:09;;;;;;;0.20;0.10;;;11.60;99.90;;;;;;20531867;28;20279;-70
2021/01/20 05:05:12;;;;;;;0.40;0.30;;;11.60;99.90;;;;;;20548951;28;20246;-70
2021/01/20 05:15:17;;;;;;;0.30;0.20;;;11.70;99.90;;;;;;20478355;28;20209;-69
2021/01/20 05:25:27;;;;;;;0.37;0.37;;;11.70;99.90;;;;;;20465101;28;20344;-70
2021/01/20 05:35:31;;;;;;;0.53;0.30;;;11.80;99.90;;;;;;20467511;28;20278;-69
2021/01/20 05:45:46;;;;;;;0.63;0.37;;;11.70;99.90;;;;;;20471482;28;20243;-69
2021/01/20 05:56:02;;;;;;;0.20;0.20;;;11.60;99.90;;;;;;20517418;28;20193;-68
2021/01/20 06:06:06;;;;;;;0.30;0.10;;;11.60;99.90;;;;;;20521696;28;20346;-70
2021/01/20 06:16:17;;;;;;;0.20;0.10;;;11.60;99.90;;;;;;20508346;28;20232;-70
2021/01/20 06:26:24;;;;;;;4.43;0.67;;;11.80;99.90;;;;;;20489269;28;20231;-69
2021/01/20 06:36:35;;;;;;;0.20;0.10;;;11.90;99.90;;;;;;20448545;28;21077;-69
2021/01/20 06:46:38;;;;;;;0.50;0.50;;;11.90;99.90;;;;;;20454682;28;20229;-70
2021/01/20 06:56:44;;;;;;;1.80;0.80;;;11.60;99.90;;;;;;20514165;28;20184;-71
2021/01/20 07:06:47;;;;;;;0.47;0.40;;;11.60;99.90;;;;;;20528452;28;20238;-70
2021/01/20 07:16:50;;;;;;;0.50;0.50;;;11.80;99.90;;;;;;20519814;28;20206;-71
2021/01/20 07:26:53;;;;;;;1.10;1.00;;;11.50;99.90;;;;;;20567769;28;20572;-70
2021/01/20 07:37:05;;;;;;;0.90;0.90;;;11.70;99.90;;;;;;20589902;28;20294;-70
2021/01/20 07:47:10;;;;;;;1.40;0.53;;;11.80;99.90;;;;;;20595373;28;20264;-70
2021/01/20 07:57:17;;;;;;;1.23;0.87;;;11.70;99.90;;;;;;20569816;28;20275;-69
2021/01/20 08:07:24;;;;;;;0.47;0.47;;;12.00;99.90;;;;;;20561870;28;20289;-68
2021/01/20 08:17:28;;;;;;;0.43;0.43;;;12.30;99.90;;;;;;20586458;28;20204;-69
2021/01/20 08:27:31;;;;;;;0.67;0.50;;;12.50;99.90;;;;;;20579873;28;20223;-70
2021/01/20 08:37:37;;;;;;;1.90;0.80;;;12.50;99.90;;;;;;20604150;28;20270;-70
2021/01/20 08:47:48;;;;;;;0.40;0.40;;;12.70;99.90;;;;;;20540706;28;20227;-69
2021/01/20 08:58:20;;;;;;;6.23;2.00;;;12.80;99.90;;;;;;20523752;28;20512;-68
2021/01/20 09:08:25;;;;;;;0.40;0.40;;;13.20;99.90;;;;;;20540496;28;20268;-68
2021/01/20 09:18:28;;;;;;;1.20;1.10;;;13.60;99.90;;;;;;20538607;28;20208;-69
2021/01/20 09:28:32;;;;;;;4.20;1.30;;;13.70;99.90;;;;;;20536909;28;20215;-68
2021/01/20 09:38:37;;;;;;;2.10;0.80;;;13.80;99.90;;;;;;20520365;28;20736;-68
2021/01/20 09:48:40;;;;;;;0.53;0.53;;;14.00;99.90;;;;;;20502423;28;20568;-68
2021/01/20 09:58:47;;;;;;;0.87;0.87;;;13.60;99.90;;;;;;20516725;28;20192;-70
2021/01/20 10:08:50;;;;;;;1.63;1.50;;;13.50;99.90;;;;;;20533417;28;20308;-67
2021/01/20 10:18:53;;;;;;;1.90;1.27;;;14.10;99.90;;;;;;20532229;28;20521;-68
2021/01/20 10:28:56;;;;;;;3.73;2.07;;;13.80;99.90;;;;;;20529478;28;20246;-72
2021/01/20 10:39:00;;;;;;;3.67;1.53;;;13.70;99.90;;;;;;20532600;28;20752;-69
2021/01/20 10:49:03;;;;;;;5.03;1.13;;;13.80;99.90;;;;;;20529294;28;20705;-68
2021/01/20 10:59:06;;;;;;;2.03;1.80;;;14.60;99.90;;;;;;20532899;28;20211;-68
2021/01/20 11:09:10;;;;;;;3.07;2.33;;;15.40;99.90;;;;;;20449762;28;20285;-70
2021/01/20 11:19:14;;;;;;;1.87;1.70;;;15.90;99.90;;;;;;20452237;28;20299;-70
2021/01/20 11:29:16;;;;;;;1.50;1.03;;;14.90;99.90;;;;;;20449861;28;20737;-70
2021/01/20 11:39:20;;;;;;;2.23;2.13;;;14.60;99.90;;;;;;20451819;28;20207;-68
2021/01/20 11:49:23;;;;;;;0.50;0.50;;;14.20;99.90;;;;;;20447413;28;20236;-68
2021/01/20 11:59:26;;;;;;;1.40;0.80;;;14.40;99.90;;;;;;20473355;28;20650;-67
2021/01/20 12:09:29;;;;;;;0.30;0.27;;;14.40;99.90;;;;;;20521625;28;20816;-67
2021/01/20 12:19:34;;;;;;;0.47;0.47;;;14.10;99.90;;;;;;20462607;28;20197;-67
2021/01/20 12:29:38;;;;;;;2.73;0.63;;;13.90;99.90;;;;;;20483056;28;20649;-68
2021/01/20 12:39:42;;;;;;;3.37;1.83;;;14.10;99.90;;;;;;20479385;28;20228;-67
2021/01/20 12:49:44;;;;;;;0.20;0.20;;;14.10;99.90;;;;;;20458419;28;20275;-69
2021/01/20 12:59:48;;;;;;;3.00;1.70;;;13.70;99.90;;;;;;20482058;28;20208;-69
2021/01/20 13:09:57;;;;;;;1.83;1.07;;;13.90;99.90;;;;;;20613714;28;20334;-68
2021/01/20 13:20:01;;;;;;;2.50;1.10;;;13.80;99.90;;;;;;20518175;28;20472;-68
2021/01/20 13:30:04;;;;;;;5.07;1.67;;;13.60;99.90;;;;;;20500464;28;20261;-66
2021/01/20 13:40:10;;;;;;;0.70;0.70;;;13.70;99.90;;;;;;20452262;28;20351;-68
2021/01/20 13:50:13;;;;;;;0.30;0.30;;;13.80;99.90;;;;;;20530744;28;20370;-67
2021/01/20 14:00:19;;;;;;;1.43;1.30;;;15.10;99.90;;;;;;20568063;28;20232;-68
2021/01/20 14:10:22;;;;;;;2.53;1.17;;;16.00;99.90;;;;;;20566737;28;20199;-68
2021/01/20 14:20:25;;;;;;;10.97;0.90;;;14.70;99.90;;;;;;20554600;28;20769;-68
2021/01/20 14:30:28;;;;;;;0.40;0.40;;;15.80;99.90;;;;;;20575972;28;20200;-68
2021/01/20 14:40:31;;;;;;;1.13;1.03;;;15.10;99.90;;;;;;20612700;28;20289;-68
2021/01/20 14:50:34;;;;;;;0.70;0.70;;;15.00;99.90;;;;;;20577903;28;20248;-68
2021/01/20 15:00:37;;;;;;;1.60;1.33;;;15.50;99.90;;;;;;20529166;28;20726;-68
2021/01/20 15:10:40;;;;;;;0.50;0.50;;;14.90;99.90;;;;;;20527001;28;20200;-69
2021/01/20 15:20:53;;;;;;;0.50;0.40;;;13.70;99.90;;;;;;20538245;28;20457;-68
2021/01/20 15:30:57;;;;;;;0.50;0.50;;;13.50;99.90;;;;;;20575622;28;20267;-67
2021/01/20 15:41:01;;;;;;;0.83;0.40;;;13.40;99.90;;;;;;20599469;28;20456;-68
2021/01/20 15:51:04;;;;;;;0.80;0.80;;;13.50;99.90;;;;;;20598843;28;20374;-70
2021/01/20 16:01:10;;;;;;;7.37;1.93;;;13.50;99.90;;;;;;20583701;28;20238;-69
2021/01/20 16:11:13;;;;;;;4.27;1.17;;;13.50;99.90;;;;;;20584363;28;20523;-69
2021/01/20 16:21:16;;;;;;;2.43;0.77;;;13.30;99.90;;;;;;20573898;28;20370;-69
2021/01/20 16:31:19;;;;;;;14.20;1.20;;;12.90;99.90;;;;;;20589146;28;20572;-69
2021/01/20 16:41:23;;;;;;;0.83;0.83;;;12.70;99.90;;;;;;20589222;28;20585;-68
2021/01/20 16:51:26;;;;;;;0.70;0.40;;;12.40;99.90;;;;;;20577761;28;20224;-69
2021/01/20 17:01:30;;;;;;;1.30;1.13;;;12.40;99.90;;;;;;20597136;28;20655;-70
2021/01/20 17:11:33;;;;;;;2.20;1.37;;;12.30;99.90;;;;;;20562460;28;20195;-68
2021/01/20 17:21:36;;;;;;;0.70;0.70;;;12.30;99.90;;;;;;20611312;28;20302;-68
2021/01/20 17:31:41;;;;;;;3.33;1.57;;;12.40;99.90;;;;;;20607250;28;20208;-69
2021/01/20 17:41:45;;;;;;;6.13;1.83;;;12.20;99.90;;;;;;20573952;28;20220;-68
2021/01/20 17:51:47;;;;;;;3.23;1.63;;;12.10;99.90;;;;;;20535222;28;20250;-66
2021/01/20 18:01:51;;;;;;;1.13;1.03;;;12.00;99.90;;;;;;20526660;28;20322;-67
2021/01/20 18:11:54;;;;;;;1.17;1.00;;;12.10;99.90;;;;;;20519544;28;20613;-67
2021/01/20 18:21:57;;;;;;;0.40;0.40;;;12.20;99.90;;;;;;20592827;28;20223;-67
2021/01/20 18:32:00;;;;;;;0.60;0.60;;;12.10;99.90;;;;;;20602164;28;20212;-67
2021/01/20 18:42:07;;;;;;;1.03;1.03;;;12.00;99.90;;;;;;20512650;28;20618;-66
2021/01/20 18:52:09;;;;;;;1.07;1.00;;;11.90;99.90;;;;;;20532102;28;20204;-65
2021/01/20 19:02:13;;;;;;;2.73;0.73;;;12.00;99.90;;;;;;20530192;28;20370;-66
2021/01/20 19:12:17;;;;;;;3.53;2.95;;;11.90;99.90;;;;;;20529897;28;20770;-66
2021/01/20 19:22:20;;;;;;;6.17;2.63;;;11.80;99.90;;;;;;20534157;28;20311;-67
2021/01/20 19:32:23;;;;;;;0.60;0.60;;;11.40;99.90;;;;;;20559168;28;20390;-65
2021/01/20 19:42:26;;;;;;;2.53;1.50;;;11.40;99.90;;;;;;20570275;28;20700;-67
2021/01/20 19:52:29;;;;;;;4.13;1.47;;;11.50;99.90;;;;;;20530263;28;21026;-66
2021/01/20 20:02:34;;;;;;;3.40;1.47;;;11.30;99.90;;;;;;20508702;28;20703;-67
2021/01/20 20:12:37;;;;;;;2.20;1.00;;;11.60;99.90;;;;;;20529817;28;20801;-66
2021/01/20 20:22:41;;;;;;;7.83;2.93;;;11.80;99.90;;;;;;20528108;28;20232;-65
2021/01/20 20:32:44;;;;;;;3.30;1.40;;;12.00;99.90;;;;;;20539544;28;20275;-66
2021/01/20 20:42:48;;;;;;;1.00;0.87;;;12.10;99.90;;;;;;20575878;28;20227;-66
2021/01/20 20:52:50;;;;;;;0.83;0.83;;;12.10;99.90;;;;;;20579524;28;20261;-68
2021/01/20 21:02:55;;;;;;;3.10;2.23;;;12.00;99.90;;;;;;20615179;28;20235;-71
2021/01/20 21:12:58;;;;;;;2.60;2.40;;;11.90;99.90;;;;;;20606306;28;20282;-67
2021/01/20 21:23:01;;;;;;;2.03;0.97;;;11.70;99.90;;;;;;20620716;28;20306;-67
2021/01/20 21:33:04;;;;;;;2.30;1.00;;;11.50;99.90;;;;;;20603678;28;20515;-70
2021/01/20 21:43:08;;;;;;;2.90;1.23;;;11.20;99.90;;;;;;20537813;28;20240;-71
2021/01/20 21:53:11;;;;;;;0.70;0.70;;;10.60;99.90;;;;;;20538986;28;20223;-70
2021/01/20 22:03:15;;;;;;;2.23;1.43;;;10.30;99.90;;;;;;20535738;28;20244;-73
2021/01/20 22:13:18;;;;;;;9.00;2.23;;;9.90;99.90;;;;;;20536506;28;21171;-72
2021/01/20 22:23:22;;;;;;;1.57;1.47;;;9.60;99.90;;;;;;20519486;28;20315;-72
2021/01/20 22:33:25;;;;;;;1.53;1.43;;;9.80;99.90;;;;;;20523574;28;20491;-72
2021/01/20 22:43:29;;;;;;;1.23;0.93;;;9.70;99.90;;;;;;20533038;28;20677;-70
2021/01/20 22:53:31;;;;;;;2.53;2.13;;;9.60;99.90;;;;;;20533140;28;20969;-72
2021/01/20 23:03:36;;;;;;;2.60;2.50;;;9.50;99.90;;;;;;20534051;28;20705;-70
2021/01/20 23:13:41;;;;;;;1.93;1.47;;;9.30;99.90;;;;;;20525485;28;20212;-71
2021/01/20 23:23:50;;;;;;;0.33;0.33;;;8.80;99.90;;;;;;20531139;28;20228;-69
2021/01/20 23:33:52;;;;;;;1.07;0.90;;;8.90;99.90;;;;;;20533285;28;20233;-71
2021/01/20 23:43:56;;;;;;;1.03;0.80;;;8.30;99.90;;;;;;20531690;28;20281;-71
2021/01/20 23:53:58;;;;;;;0.80;0.77;;;9.20;99.90;;;;;;20515225;28;20233;-72
